createdAt,value
2019-03-13T00:04:10.196Z,5.94
2019-03-13T00:06:39.553Z,5.91
2019-03-13T00:09:21.636Z,5.90
2019-03-13T00:11:51.323Z,5.90
2019-03-13T00:14:20.767Z,5.91
2019-03-13T00:16:50.417Z,5.90
2019-03-13T00:19:19.790Z,5.88
2019-03-13T00:21:49.332Z,5.89
2019-03-13T00:24:18.705Z,5.87
2019-03-13T00:26:48.301Z,5.82
2019-03-13T00:29:17.698Z,5.86
2019-03-13T00:31:47.032Z,5.88
2019-03-13T00:34:16.521Z,5.88
2019-03-13T00:36:45.876Z,5.88
2019-03-13T00:39:15.400Z,5.90
2019-03-13T00:41:44.756Z,5.91
2019-03-13T00:44:14.316Z,5.92
2019-03-13T00:46:43.674Z,5.94
2019-03-13T00:49:13.057Z,5.97
2019-03-13T00:51:42.442Z,5.99
2019-03-13T00:54:11.818Z,6.01
2019-03-13T00:56:41.476Z,6.06
2019-03-13T00:59:12.465Z,6.09
2019-03-13T01:07:17.824Z,6.11
2019-03-13T01:09:47.776Z,6.12
2019-03-13T01:12:17.408Z,6.09
2019-03-13T01:14:46.774Z,6.12
2019-03-13T01:17:16.422Z,6.13
2019-03-13T01:20:05.173Z,6.15
2019-03-13T01:22:34.655Z,6.15
2019-03-13T01:25:04.102Z,6.18
2019-03-13T01:27:33.888Z,6.22
2019-03-13T01:30:14.663Z,6.21
2019-03-13T01:33:03.138Z,6.20
2019-03-13T01:35:51.690Z,6.17
2019-03-13T01:38:21.040Z,6.19
2019-03-13T01:40:50.724Z,6.21
2019-03-13T01:43:20.091Z,6.21
2019-03-13T01:45:49.682Z,6.24
2019-03-13T01:48:19.050Z,6.27
2019-03-13T01:50:48.907Z,6.30
2019-03-13T01:53:37.905Z,6.31
2019-03-13T01:56:07.273Z,6.31
2019-03-13T01:58:36.984Z,6.27
2019-03-13T02:01:06.629Z,6.23
2019-03-13T02:03:36.006Z,6.25
2019-03-13T02:06:05.613Z,6.24
2019-03-13T02:08:34.960Z,6.24
2019-03-13T02:14:12.394Z,6.19
2019-03-13T02:16:41.854Z,6.19
2019-03-13T02:19:11.232Z,6.21
2019-03-13T02:21:41.091Z,6.22
2019-03-13T02:24:10.742Z,6.24
2019-03-13T02:26:40.112Z,6.23
2019-03-13T02:29:11.092Z,6.19
2019-03-13T02:31:40.741Z,6.17
2019-03-13T02:34:10.101Z,6.15
2019-03-13T02:36:39.783Z,6.12
2019-03-13T02:39:09.153Z,6.12
2019-03-13T02:41:39.087Z,6.12
2019-03-13T02:44:09.152Z,6.14
2019-03-13T02:46:38.852Z,6.17
2019-03-13T02:49:08.226Z,6.24
2019-03-13T02:51:37.842Z,6.27
2019-03-13T02:54:07.199Z,6.29
2019-03-13T02:56:36.827Z,6.33
2019-03-13T02:59:06.512Z,6.32
2019-03-13T03:01:55.384Z,6.36
2019-03-13T03:04:44.325Z,6.34
2019-03-13T03:07:14.024Z,6.34
2019-03-13T03:09:43.374Z,6.35
2019-03-13T03:12:12.993Z,6.32
2019-03-13T03:17:44.491Z,6.32
2019-03-13T03:20:54.218Z,6.31
2019-03-13T03:23:23.888Z,6.32
2019-03-13T03:25:53.440Z,6.35
2019-03-13T03:28:23.075Z,6.39
2019-03-13T03:30:53.694Z,6.38
2019-03-13T03:33:23.081Z,6.36
2019-03-13T03:35:53.398Z,6.38
2019-03-13T03:38:24.659Z,6.40
2019-03-13T03:40:55.634Z,6.42
2019-03-13T03:43:39.561Z,6.45
2019-03-13T03:46:15.355Z,6.45
2019-03-13T03:48:45.003Z,6.48
2019-03-13T03:51:14.364Z,6.48
2019-03-13T03:53:44.008Z,6.49
2019-03-13T03:56:13.396Z,6.50
2019-03-13T03:58:43.029Z,6.51
2019-03-13T04:01:12.396Z,6.54
2019-03-13T04:03:42.035Z,6.53
2019-03-13T04:06:12.057Z,6.54
2019-03-13T04:08:41.442Z,6.59
2019-03-13T04:11:11.443Z,6.57
2019-03-13T04:13:44.439Z,6.56
2019-03-13T04:16:17.296Z,6.52
2019-03-13T04:18:46.665Z,6.51
2019-03-13T04:21:35.494Z,6.56
2019-03-13T04:24:05.425Z,6.56
2019-03-13T04:26:34.793Z,6.58
2019-03-13T04:29:04.457Z,6.61
2019-03-13T04:31:33.848Z,6.62
2019-03-13T04:34:03.309Z,6.63
2019-03-13T04:36:32.960Z,6.66
2019-03-13T04:39:02.632Z,6.70
2019-03-13T04:41:33.609Z,6.73
2019-03-13T04:44:03.509Z,6.75
2019-03-13T04:46:34.482Z,6.78
2019-03-13T04:49:04.152Z,6.79
2019-03-13T04:51:33.496Z,6.79
2019-03-13T04:54:04.770Z,6.80
2019-03-13T04:56:34.308Z,6.79
2019-03-13T04:59:03.662Z,6.80
2019-03-13T05:01:33.332Z,6.83
2019-03-13T05:04:02.899Z,6.84
2019-03-13T05:06:32.405Z,6.83
2019-03-13T05:09:01.786Z,6.83
2019-03-13T05:11:32.757Z,6.82
2019-03-13T05:14:02.419Z,6.86
2019-03-13T05:16:31.788Z,6.88
2019-03-13T05:19:01.438Z,6.92
2019-03-13T05:21:30.808Z,6.94
2019-03-13T05:24:00.454Z,6.95
2019-03-13T05:26:49.163Z,6.99
2019-03-13T05:29:18.521Z,7.02
2019-03-13T05:31:47.902Z,7.03
2019-03-13T05:34:17.813Z,7.04
2019-03-13T05:36:47.828Z,7.04
2019-03-13T05:39:37.146Z,7.09
2019-03-13T05:42:06.718Z,7.09
2019-03-13T05:44:36.730Z,7.10
2019-03-13T05:47:06.733Z,7.09
2019-03-13T05:49:36.161Z,7.12
2019-03-13T05:52:05.890Z,7.12
2019-03-13T05:54:35.509Z,7.12
2019-03-13T05:57:05.013Z,7.12
2019-03-13T05:59:34.499Z,7.16
2019-03-13T06:02:04.120Z,7.16
2019-03-13T06:04:33.685Z,7.17
2019-03-13T06:07:03.149Z,7.20
2019-03-13T06:09:32.660Z,7.19
2019-03-13T06:12:02.025Z,7.19
2019-03-13T06:14:31.646Z,7.20
2019-03-13T06:17:01.021Z,7.20
2019-03-13T06:19:30.933Z,7.21
2019-03-13T06:22:00.608Z,7.23
2019-03-13T06:24:29.954Z,7.25
2019-03-13T06:26:59.614Z,7.24
2019-03-13T06:29:31.605Z,7.23
2019-03-13T06:32:19.136Z,7.20
2019-03-13T06:34:48.803Z,7.22
2019-03-13T06:37:18.174Z,7.26
2019-03-13T06:39:47.734Z,7.26
2019-03-13T06:42:17.096Z,7.26
2019-03-13T06:48:06.972Z,7.26
2019-03-13T06:50:36.637Z,7.26
2019-03-13T06:53:06.300Z,7.27
2019-03-13T06:55:36.211Z,7.30
2019-03-13T06:58:05.578Z,7.34
2019-03-13T07:01:13.508Z,7.35
2019-03-13T07:09:39.554Z,7.36
2019-03-13T07:23:48.614Z,7.38
2019-03-13T07:26:37.280Z,7.38
2019-03-13T07:29:25.779Z,7.38
2019-03-13T07:32:14.456Z,7.37
2019-03-13T07:35:03.256Z,7.37
2019-03-13T07:40:47.537Z,7.35
2019-03-13T07:49:26.650Z,7.35
2019-03-13T07:52:15.565Z,7.35
2019-03-13T07:58:00.497Z,7.38
2019-03-13T08:03:29.268Z,7.46
2019-03-13T08:06:17.778Z,7.49
2019-03-13T08:11:59.432Z,7.57
2019-03-13T08:26:43.427Z,7.67
2019-03-13T08:29:32.189Z,7.65
2019-03-13T08:32:20.960Z,7.60
2019-03-13T08:40:51.916Z,7.59
2019-03-13T08:43:59.897Z,7.59
2019-03-13T08:49:28.779Z,7.62
2019-03-13T08:52:17.565Z,7.63
2019-03-13T08:55:06.064Z,7.63
2019-03-13T08:57:54.543Z,7.65
2019-03-13T09:00:43.364Z,7.65
2019-03-13T09:03:31.834Z,7.62
2019-03-13T09:06:20.653Z,7.61
2019-03-13T09:09:09.130Z,7.61
2019-03-13T09:11:57.686Z,7.64
2019-03-13T09:14:46.177Z,7.64
2019-03-13T09:17:34.703Z,7.63
2019-03-13T09:20:44.389Z,7.66
2019-03-13T09:34:44.039Z,7.73
2019-03-13T09:37:32.634Z,7.74
2019-03-13T09:46:27.125Z,7.84
2019-03-13T09:49:15.906Z,7.90
2019-03-13T09:55:00.371Z,7.92
2019-03-13T09:57:49.278Z,7.91
2019-03-13T10:00:35.625Z,7.90
2019-03-13T10:06:03.018Z,7.92
2019-03-13T10:08:51.753Z,7.89
2019-03-13T10:11:40.232Z,7.89
2019-03-13T10:14:29.022Z,7.88
2019-03-13T10:17:18.077Z,7.86
2019-03-13T10:20:06.861Z,7.88
2019-03-13T10:22:55.349Z,7.88
2019-03-13T10:28:56.970Z,7.75
2019-03-13T10:31:46.822Z,7.70
2019-03-13T10:34:40.984Z,7.62
2019-03-13T10:40:44.494Z,7.46
2019-03-13T10:43:33.001Z,7.50
2019-03-13T10:46:21.502Z,7.49
2019-03-13T10:49:10.262Z,7.53
2019-03-13T10:51:58.970Z,7.55
2019-03-13T10:58:02.812Z,7.55
2019-03-13T11:03:46.797Z,7.39
2019-03-13T11:06:35.561Z,7.39
2019-03-13T11:09:45.183Z,7.35
2019-03-13T11:15:43.581Z,7.28
2019-03-13T11:18:32.083Z,7.28
2019-03-13T11:21:20.582Z,7.25
2019-03-13T11:24:21.513Z,7.33
2019-03-13T11:27:10.135Z,7.33
2019-03-13T11:35:54.514Z,7.47
2019-03-13T11:38:37.838Z,7.54
2019-03-13T11:41:26.446Z,7.54
2019-03-13T11:44:15.267Z,7.64
2019-03-13T11:47:04.031Z,7.76
2019-03-13T11:49:52.529Z,7.82
2019-03-13T11:52:38.863Z,7.83
2019-03-13T11:55:48.569Z,7.83
2019-03-13T11:58:56.458Z,7.75
2019-03-13T12:01:45.995Z,7.72
2019-03-13T12:04:52.370Z,7.72
2019-03-13T12:08:00.442Z,7.85
2019-03-13T12:11:01.058Z,7.86
2019-03-13T12:13:49.545Z,7.86
2019-03-13T12:16:58.241Z,7.89
2019-03-13T12:22:42.340Z,7.88
2019-03-13T12:28:32.406Z,7.68
2019-03-13T12:31:20.910Z,7.64
2019-03-13T12:37:05.447Z,7.57
2019-03-13T12:39:54.187Z,7.50
2019-03-13T12:42:42.677Z,7.42
2019-03-13T12:52:19.966Z,7.41
2019-03-13T12:58:17.866Z,7.35
2019-03-13T13:01:06.530Z,7.34
2019-03-13T13:03:55.001Z,7.34
2019-03-13T13:09:38.900Z,7.33
2019-03-13T13:18:24.566Z,7.25
2019-03-13T13:20:55.380Z,7.13
2019-03-13T13:23:26.331Z,7.13
2019-03-13T13:25:55.686Z,7.07
2019-03-13T13:28:26.679Z,7.09
2019-03-13T13:30:56.332Z,7.07
2019-03-13T13:33:25.701Z,7.03
2019-03-13T13:35:55.729Z,7.00
2019-03-13T13:38:25.367Z,6.98
2019-03-13T13:40:56.050Z,6.93
2019-03-13T13:43:25.399Z,6.89
2019-03-13T13:46:35.778Z,6.90
2019-03-13T13:49:05.671Z,6.86
2019-03-13T13:51:35.045Z,6.81
2019-03-13T13:54:05.057Z,6.73
2019-03-13T13:56:34.528Z,6.62
2019-03-13T13:59:04.169Z,6.55
2019-03-13T14:01:33.556Z,6.45
2019-03-13T14:04:02.902Z,6.41
2019-03-13T14:06:32.580Z,6.43
2019-03-13T14:09:02.288Z,6.42
2019-03-13T14:11:33.522Z,6.41
2019-03-13T14:14:02.883Z,6.41
2019-03-13T14:16:32.494Z,6.41
2019-03-13T14:19:02.136Z,6.40
2019-03-13T14:21:31.645Z,6.41
2019-03-13T14:24:41.037Z,6.43
2019-03-13T14:27:14.798Z,6.44
2019-03-13T14:30:00.847Z,6.45
2019-03-13T14:32:31.856Z,6.46
2019-03-13T14:35:01.481Z,6.50
2019-03-13T14:37:30.837Z,6.54
2019-03-13T14:40:00.185Z,6.59
2019-03-13T14:42:29.743Z,6.66
2019-03-13T14:44:59.098Z,6.73
2019-03-13T14:47:28.633Z,6.81
2019-03-13T14:49:57.976Z,6.86
2019-03-13T14:52:39.838Z,6.91
2019-03-13T14:55:29.121Z,6.91
2019-03-13T14:57:58.779Z,6.91
2019-03-13T15:00:28.194Z,6.89
2019-03-13T15:02:57.856Z,6.87
2019-03-13T15:05:27.492Z,6.90
2019-03-13T15:07:56.980Z,6.92
2019-03-13T15:10:26.667Z,6.98
2019-03-13T15:12:56.053Z,6.99
2019-03-13T15:15:25.690Z,7.03
2019-03-13T15:17:56.160Z,7.07
2019-03-13T15:23:46.678Z,7.29
2019-03-13T15:26:29.630Z,7.46
2019-03-13T15:28:59.289Z,7.46
2019-03-13T15:31:41.383Z,7.46
2019-03-13T15:34:10.843Z,7.41
2019-03-13T15:36:40.191Z,7.41
2019-03-13T15:39:09.845Z,7.39
2019-03-13T15:41:40.821Z,7.33
2019-03-13T15:44:10.470Z,7.29
2019-03-13T15:46:52.022Z,7.28
2019-03-13T15:52:25.246Z,7.27
2019-03-13T15:54:54.900Z,7.25
2019-03-13T15:57:24.246Z,7.22
2019-03-13T16:00:24.438Z,7.16
2019-03-13T16:02:55.681Z,7.16
2019-03-13T16:05:44.032Z,7.14
2019-03-13T16:08:13.979Z,7.13
2019-03-13T16:10:43.324Z,7.11
2019-03-13T16:13:12.974Z,7.09
2019-03-13T16:18:38.809Z,7.09
2019-03-13T16:21:08.245Z,7.12
2019-03-13T16:23:37.933Z,7.14
2019-03-13T16:26:07.573Z,7.17
2019-03-13T16:28:37.048Z,7.16
2019-03-13T16:34:02.211Z,7.18
2019-03-13T16:39:33.510Z,7.17
2019-03-13T16:42:03.154Z,7.14
2019-03-13T16:44:32.509Z,7.13
2019-03-13T16:47:02.143Z,7.14
2019-03-13T16:49:31.526Z,7.14
2019-03-13T16:52:01.142Z,7.09
2019-03-13T16:54:31.127Z,7.10
2019-03-13T17:00:02.604Z,7.11
2019-03-13T17:02:33.570Z,7.11
2019-03-13T17:05:15.950Z,7.12
2019-03-13T17:07:45.354Z,7.14
2019-03-13T17:10:55.060Z,7.18
2019-03-13T17:13:24.404Z,7.24
2019-03-13T17:15:54.057Z,7.37
2019-03-13T17:18:23.397Z,7.41
2019-03-13T17:20:52.756Z,7.44
2019-03-13T17:23:34.196Z,7.42
2019-03-13T17:26:03.556Z,7.42
2019-03-13T17:28:53.500Z,7.42
2019-03-13T17:31:23.144Z,7.42
2019-03-13T17:33:52.732Z,7.38
2019-03-13T17:36:22.168Z,7.24
2019-03-13T17:38:51.510Z,7.24
2019-03-13T17:41:21.119Z,7.23
2019-03-13T17:43:50.476Z,7.20
2019-03-13T17:46:20.131Z,7.17
2019-03-13T17:49:10.669Z,7.21
2019-03-13T17:51:40.356Z,7.22
2019-03-13T17:54:10.057Z,7.22
2019-03-13T17:56:39.484Z,7.21
2019-03-13T17:59:08.845Z,7.21
2019-03-13T18:01:38.375Z,7.22
2019-03-13T18:04:07.822Z,7.20
2019-03-13T18:06:37.366Z,7.19
2019-03-13T18:12:09.501Z,7.16
2019-03-13T18:14:38.872Z,7.14
2019-03-13T18:17:08.507Z,7.15
2019-03-13T18:19:37.876Z,7.15
2019-03-13T18:22:07.508Z,7.15
2019-03-13T18:24:36.863Z,7.17
2019-03-13T18:27:06.662Z,7.15
2019-03-13T18:29:36.001Z,7.18
2019-03-13T18:32:05.645Z,7.18
2019-03-13T18:34:36.630Z,7.18
2019-03-13T18:37:06.005Z,7.19
2019-03-13T18:39:35.497Z,7.29
2019-03-13T18:45:56.769Z,7.37
2019-03-13T18:48:26.400Z,7.45
2019-03-13T18:50:56.944Z,7.50
2019-03-13T18:53:26.615Z,7.53
2019-03-13T18:55:57.017Z,7.60
2019-03-13T18:58:26.858Z,7.68
2019-03-13T19:00:58.197Z,7.68
2019-03-13T19:03:37.701Z,7.67
2019-03-13T19:06:07.103Z,7.66
2019-03-13T19:08:56.024Z,7.71
2019-03-13T19:11:25.739Z,7.77
2019-03-13T19:13:58.084Z,7.77
2019-03-13T19:16:32.019Z,7.79
2019-03-13T19:19:01.668Z,7.78
2019-03-13T19:21:31.056Z,7.81
2019-03-13T19:24:02.590Z,7.82
2019-03-13T19:26:37.036Z,7.82
2019-03-13T19:29:06.721Z,7.85
2019-03-13T19:31:36.072Z,7.85
2019-03-13T19:34:05.705Z,7.88
2019-03-13T19:36:35.092Z,7.88
2019-03-13T19:42:38.758Z,7.89
2019-03-13T19:51:12.339Z,7.89
2019-03-13T19:53:53.876Z,7.83
2019-03-13T19:56:23.239Z,7.83
2019-03-13T19:59:12.136Z,7.80
2019-03-13T20:01:41.801Z,7.78
2019-03-13T20:04:11.155Z,7.78
2019-03-13T20:06:42.523Z,7.75
2019-03-13T20:09:17.393Z,7.74
2019-03-13T20:11:46.895Z,7.76
2019-03-13T20:14:16.235Z,7.78
2019-03-13T20:16:46.714Z,7.78
2019-03-13T20:19:48.409Z,7.78
2019-03-13T20:22:30.541Z,7.72
2019-03-13T20:25:00.394Z,7.72
2019-03-13T20:27:36.976Z,7.65
2019-03-13T20:33:08.360Z,7.62
2019-03-13T20:35:37.926Z,7.53
2019-03-13T20:38:07.287Z,7.46
2019-03-13T20:40:49.244Z,7.42
2019-03-13T20:43:31.710Z,7.41
2019-03-13T20:46:01.246Z,7.41
2019-03-13T20:48:30.610Z,7.39
2019-03-13T20:54:01.645Z,7.41
2019-03-13T20:56:50.350Z,7.47
2019-03-13T20:59:32.916Z,7.47
2019-03-13T21:02:02.294Z,7.47
2019-03-13T21:04:31.938Z,7.51
2019-03-13T21:07:01.569Z,7.57
2019-03-13T21:09:31.153Z,7.60
2019-03-13T21:12:00.522Z,7.59
2019-03-13T21:14:30.157Z,7.60
2019-03-13T21:16:59.555Z,7.59
2019-03-13T21:19:29.035Z,7.60
2019-03-13T21:21:58.701Z,7.61
2019-03-13T21:24:47.495Z,7.58
2019-03-13T21:27:17.186Z,7.62
2019-03-13T21:33:20.637Z,7.65
2019-03-13T21:36:02.431Z,7.61
2019-03-13T21:38:33.104Z,7.61
2019-03-13T21:41:02.741Z,7.66
2019-03-13T21:43:32.339Z,7.68
2019-03-13T21:48:42.507Z,7.69
2019-03-13T21:51:12.175Z,7.65
2019-03-13T21:53:41.521Z,7.62
2019-03-13T21:56:11.217Z,7.55
2019-03-13T21:58:40.564Z,7.52
2019-03-13T22:01:22.445Z,7.37
2019-03-13T22:03:51.793Z,7.37
2019-03-13T22:06:40.526Z,7.38
2019-03-13T22:09:10.474Z,7.38
2019-03-13T22:11:41.443Z,7.38
2019-03-13T22:14:11.123Z,7.39
2019-03-13T22:16:40.742Z,7.38
2019-03-13T22:19:10.394Z,7.32
2019-03-13T22:21:39.744Z,7.31
2019-03-13T22:24:09.403Z,7.29
2019-03-13T22:26:38.762Z,7.27
2019-03-13T22:29:08.424Z,7.24
2019-03-13T22:31:37.792Z,7.27
2019-03-13T22:34:07.803Z,7.27
2019-03-13T22:36:49.334Z,7.28
2019-03-13T22:39:18.690Z,7.28
2019-03-13T22:42:01.285Z,7.29
2019-03-13T22:44:30.653Z,7.32
2019-03-13T22:47:00.062Z,7.35
2019-03-13T22:49:29.516Z,7.37
2019-03-13T22:54:47.488Z,7.36
2019-03-13T22:57:16.831Z,7.34
2019-03-13T23:02:49.600Z,7.34
2019-03-13T23:05:18.950Z,7.35
2019-03-13T23:07:48.618Z,7.38
2019-03-13T23:10:37.310Z,7.38
2019-03-13T23:13:06.953Z,7.42
2019-03-13T23:15:36.610Z,7.41
2019-03-13T23:18:46.032Z,7.41
2019-03-13T23:21:15.680Z,7.39
2019-03-13T23:23:45.042Z,7.39
2019-03-13T23:26:15.023Z,7.34
2019-03-13T23:28:44.667Z,7.34
2019-03-13T23:31:14.022Z,7.34
2019-03-13T23:33:43.955Z,7.40
2019-03-13T23:36:13.597Z,7.44
2019-03-13T23:38:44.766Z,7.47
2019-03-13T23:41:14.157Z,7.49
2019-03-13T23:43:43.721Z,7.50
2019-03-13T23:46:13.902Z,7.50
2019-03-13T23:48:43.632Z,7.49
2019-03-13T23:51:32.614Z,7.38
2019-03-13T23:54:01.984Z,7.38
2019-03-13T23:56:31.637Z,7.30
2019-03-13T23:59:01.021Z,7.23
